Effingham Falls, NH

5:35 AM EDT on March 29, 2017 (GMT -0400)
MEFFN3 | | Change Station

Elev 436 ft 43.80 °N, 71.06 °W | Updated 1 hour ago

Overcast
Overcast
34.0 °F
Feels Like 34.0 °F
N
-
Wind Variable Wind from North

Today
High -- | Low -- °F
--% Chance of Precip.
Yesterday
High -- | Low -- °F
Precip. -- in
Pressure 29.99 in
Visibility 3.0 miles
Clouds Few 300 ft
Few 2500 ft
Overcast 3500 ft
Dew Point Not available.
Humidity Not available.
Rainfall in
Snow Depth Not available.
6:30 AM 7:07 PM
New Moon, 2% visible
METAR KIZG 290854Z AUTO 00000KT 3SM BR FEW003 FEW025 OVC035 01/00 A2998 RMK AO2 SLP156 60000 T00060000 53002
Pressure 29.99 in
Visibility 3.0 miles
Clouds Few 300 ft
Few 2500 ft
Overcast 3500 ft
Dew Point Not available.
Humidity Not available.
Rainfall in
Snow Depth Not available.
6:30 AM 7:07 PM
New Moon, 2% visible
METAR KIZG 290854Z AUTO 00000KT 3SM BR FEW003 FEW025 OVC035 01/00 A2998 RMK AO2 SLP156 60000 T00060000 53002

Get Severe Weather Alerts

Thanks for signing up!

Be on the lookout for a verification email in your inbox.

You'll start receiving the daily forecast at 8 AM.

×

10-Day Weather Forecast

Almanac

Astronomy

Mar. 29, 2017 Rise Set
Actual Time
Civil Twilight
Nautical Twilight
Astronomical Twilight
Moon
Length of Visible Light
Length of Day
Tomorrow will be .
, % of the Moon is Illuminated

Today's Extremes

State Highs State Lows

Community

WunderPhotos

Upload Photos

1,962,540 photos uploaded!

WunderBlog® & News

Nearby

Air Quality

  Air Quality AQ Index Pollutant
Not available.

Snow Depth

Station Depth Elevation

Earthquake Activity

City Distance Mag. Time & Date
Minimum magnitude displayed is 2.5.

Earthquake Activity

City Distance Mag. Time & Date
Minimum magnitude displayed is 2.5.

Coastal Water Temperatures

Place Temperature

Stations

Nearby Weather Stations

Station Location Temp. Windchill Dew Point Humidity Wind Precip. Elev Updated Type
                   

Watches & Warnings

There are currently no watches in effect.